sensor_id;sensor_type;location;lat;lon;timestamp;pressure;altitude;pressure_sealevel;temperature;humidity
22206;BME280;11272;50.104;8.754;2023-07-20T00:01:57;100273.41;;;22.86;43.21
22206;BME280;11272;50.104;8.754;2023-07-20T00:04:23;100269.06;;;22.84;43.31
22206;BME280;11272;50.104;8.754;2023-07-20T00:06:48;100279.13;;;22.82;43.41
22206;BME280;11272;50.104;8.754;2023-07-20T00:09:16;100275.91;;;22.77;43.57
22206;BME280;11272;50.104;8.754;2023-07-20T00:11:48;100281.00;;;22.68;43.79
22206;BME280;11272;50.104;8.754;2023-07-20T00:14:15;100275.06;;;22.63;43.88
22206;BME280;11272;50.104;8.754;2023-07-20T00:16:40;100278.75;;;22.62;43.98
22206;BME280;11272;50.104;8.754;2023-07-20T00:19:06;100286.97;;;22.61;44.03
22206;BME280;11272;50.104;8.754;2023-07-20T00:21:32;100282.66;;;22.58;44.10
22206;BME280;11272;50.104;8.754;2023-07-20T00:23:57;100276.47;;;22.56;44.30
22206;BME280;11272;50.104;8.754;2023-07-20T00:26:23;100284.06;;;22.51;44.14
22206;BME280;11272;50.104;8.754;2023-07-20T00:28:49;100274.47;;;22.47;44.39
22206;BME280;11272;50.104;8.754;2023-07-20T00:31:18;100271.75;;;22.47;44.32
22206;BME280;11272;50.104;8.754;2023-07-20T00:33:44;100272.72;;;22.46;44.66
22206;BME280;11272;50.104;8.754;2023-07-20T00:36:09;100270.00;;;22.46;44.69
22206;BME280;11272;50.104;8.754;2023-07-20T00:38:35;100262.97;;;22.44;44.82
22206;BME280;11272;50.104;8.754;2023-07-20T00:41:00;100269.59;;;22.40;44.93
22206;BME280;11272;50.104;8.754;2023-07-20T00:43:26;100264.75;;;22.32;45.09
22206;BME280;11272;50.104;8.754;2023-07-20T00:45:51;100272.34;;;22.27;45.18
22206;BME280;11272;50.104;8.754;2023-07-20T00:48:17;100272.53;;;22.24;45.39
22206;BME280;11272;50.104;8.754;2023-07-20T00:50:44;100273.84;;;22.18;45.61
22206;BME280;11272;50.104;8.754;2023-07-20T00:53:10;100277.44;;;22.19;45.41
22206;BME280;11272;50.104;8.754;2023-07-20T00:55:36;100270.28;;;22.18;45.69
22206;BME280;11272;50.104;8.754;2023-07-20T00:58:02;100276.91;;;22.14;45.78
22206;BME280;11272;50.104;8.754;2023-07-20T01:00:28;100280.81;;;22.10;46.04
22206;BME280;11272;50.104;8.754;2023-07-20T01:02:53;100289.97;;;22.07;45.85
22206;BME280;11272;50.104;8.754;2023-07-20T01:05:20;100278.63;;;22.02;46.09
22206;BME280;11272;50.104;8.754;2023-07-20T01:07:55;100285.47;;;21.95;46.36
22206;BME280;11272;50.104;8.754;2023-07-20T01:10:32;100287.16;;;21.83;46.47
22206;BME280;11272;50.104;8.754;2023-07-20T01:13:00;100292.22;;;21.75;46.73
22206;BME280;11272;50.104;8.754;2023-07-20T01:15:27;100286.69;;;21.64;46.97
22206;BME280;11272;50.104;8.754;2023-07-20T01:17:52;100291.78;;;21.56;47.07
22206;BME280;11272;50.104;8.754;2023-07-20T01:20:20;100280.44;;;21.51;47.22
22206;BME280;11272;50.104;8.754;2023-07-20T01:25:47;100288.91;;;21.32;47.46
22206;BME280;11272;50.104;8.754;2023-07-20T01:28:39;100296.78;;;21.23;47.79
22206;BME280;11272;50.104;8.754;2023-07-20T01:33:44;100295.72;;;21.11;48.10
22206;BME280;11272;50.104;8.754;2023-07-20T01:36:11;100291.59;;;21.06;48.27
22206;BME280;11272;50.104;8.754;2023-07-20T01:38:37;100298.19;;;21.01;48.48
22206;BME280;11272;50.104;8.754;2023-07-20T01:41:03;100296.66;;;20.97;48.60
22206;BME280;11272;50.104;8.754;2023-07-20T01:43:30;100294.47;;;20.90;48.65
22206;BME280;11272;50.104;8.754;2023-07-20T01:45:55;100308.19;;;20.87;48.81
22206;BME280;11272;50.104;8.754;2023-07-20T01:48:21;100300.38;;;20.82;48.83
22206;BME280;11272;50.104;8.754;2023-07-20T01:50:47;100305.97;;;20.79;48.96
22206;BME280;11272;50.104;8.754;2023-07-20T01:53:12;100309.63;;;20.78;49.32
22206;BME280;11272;50.104;8.754;2023-07-20T01:55:38;100302.72;;;20.74;49.42
22206;BME280;11272;50.104;8.754;2023-07-20T01:58:04;100303.97;;;20.69;49.56
22206;BME280;11272;50.104;8.754;2023-07-20T02:00:29;100305.22;;;20.63;49.66
22206;BME280;11272;50.104;8.754;2023-07-20T02:02:55;100304.66;;;20.58;50.01
22206;BME280;11272;50.104;8.754;2023-07-20T02:05:21;100298.69;;;20.53;50.24
22206;BME280;11272;50.104;8.754;2023-07-20T02:07:47;100304.41;;;20.48;50.21
22206;BME280;11272;50.104;8.754;2023-07-20T02:10:17;100306.63;;;20.42;50.30
22206;BME280;11272;50.104;8.754;2023-07-20T02:12:42;100302.59;;;20.35;50.48
22206;BME280;11272;50.104;8.754;2023-07-20T02:15:08;100298.25;;;20.32;50.45
22206;BME280;11272;50.104;8.754;2023-07-20T02:17:35;100302.19;;;20.27;50.77
22206;BME280;11272;50.104;8.754;2023-07-20T02:20:02;100309.59;;;20.23;51.21
22206;BME280;11272;50.104;8.754;2023-07-20T02:22:28;100306.22;;;20.19;51.13
22206;BME280;11272;50.104;8.754;2023-07-20T02:24:54;100309.91;;;20.18;51.21
22206;BME280;11272;50.104;8.754;2023-07-20T02:27:20;100301.97;;;20.15;51.28
22206;BME280;11272;50.104;8.754;2023-07-20T02:29:46;100296.00;;;20.10;51.13
22206;BME280;11272;50.104;8.754;2023-07-20T02:32:11;100302.38;;;20.09;51.71
22206;BME280;11272;50.104;8.754;2023-07-20T02:34:37;100303.53;;;20.05;51.78
22206;BME280;11272;50.104;8.754;2023-07-20T02:37:03;100308.25;;;20.02;51.62
22206;BME280;11272;50.104;8.754;2023-07-20T02:39:29;100315.75;;;19.97;51.86
22206;BME280;11272;50.104;8.754;2023-07-20T02:41:55;100308.13;;;19.89;52.10
22206;BME280;11272;50.104;8.754;2023-07-20T02:44:21;100315.56;;;19.86;52.22
22206;BME280;11272;50.104;8.754;2023-07-20T02:46:47;100311.22;;;19.83;52.42
22206;BME280;11272;50.104;8.754;2023-07-20T02:49:15;100314.09;;;19.80;52.56
22206;BME280;11272;50.104;8.754;2023-07-20T02:51:42;100314.09;;;19.80;52.65
22206;BME280;11272;50.104;8.754;2023-07-20T02:54:07;100318.03;;;19.74;52.72
22206;BME280;11272;50.104;8.754;2023-07-20T02:56:33;100311.28;;;19.67;52.90
22206;BME280;11272;50.104;8.754;2023-07-20T02:59:00;100303.41;;;19.64;52.94
22206;BME280;11272;50.104;8.754;2023-07-20T03:01:27;100304.44;;;19.62;53.12
22206;BME280;11272;50.104;8.754;2023-07-20T03:03:55;100304.56;;;19.60;53.10
22206;BME280;11272;50.104;8.754;2023-07-20T03:06:21;100311.84;;;19.58;53.25
22206;BME280;11272;50.104;8.754;2023-07-20T03:08:47;100315.56;;;19.56;53.33
22206;BME280;11272;50.104;8.754;2023-07-20T03:11:14;100307.63;;;19.54;53.46
22206;BME280;11272;50.104;8.754;2023-07-20T03:13:42;100309.44;;;19.54;53.61
22206;BME280;11272;50.104;8.754;2023-07-20T03:16:09;100302.97;;;19.56;53.91
22206;BME280;11272;50.104;8.754;2023-07-20T03:18:37;100308.28;;;19.58;53.66
22206;BME280;11272;50.104;8.754;2023-07-20T03:21:05;100310.91;;;19.59;53.74
22206;BME280;11272;50.104;8.754;2023-07-20T03:23:31;100311.75;;;19.60;53.71
22206;BME280;11272;50.104;8.754;2023-07-20T03:25:57;100311.75;;;19.60;53.35
22206;BME280;11272;50.104;8.754;2023-07-20T03:28:23;100308.88;;;19.63;53.70
22206;BME280;11272;50.104;8.754;2023-07-20T03:30:58;100312.34;;;19.65;53.90
22206;BME280;11272;50.104;8.754;2023-07-20T03:33:26;100319.38;;;19.67;53.59
22206;BME280;11272;50.104;8.754;2023-07-20T03:35:56;100322.75;;;19.71;53.95
22206;BME280;11272;50.104;8.754;2023-07-20T03:38:24;100318.13;;;19.73;53.89
22206;BME280;11272;50.104;8.754;2023-07-20T03:40:58;100310.81;;;19.75;53.59
22206;BME280;11272;50.104;8.754;2023-07-20T03:43:28;100312.38;;;19.79;53.50
22206;BME280;11272;50.104;8.754;2023-07-20T03:45:55;100317.75;;;19.79;53.70
22206;BME280;11272;50.104;8.754;2023-07-20T03:48:24;100315.94;;;19.80;53.54
22206;BME280;11272;50.104;8.754;2023-07-20T03:50:51;100315.84;;;19.81;53.53
22206;BME280;11272;50.104;8.754;2023-07-20T03:53:20;100314.78;;;19.84;53.50
22206;BME280;11272;50.104;8.754;2023-07-20T03:55:51;100316.50;;;19.85;53.46
22206;BME280;11272;50.104;8.754;2023-07-20T03:58:17;100312.16;;;19.82;53.59
22206;BME280;11272;50.104;8.754;2023-07-20T04:00:48;100314.84;;;19.82;53.43
22206;BME280;11272;50.104;8.754;2023-07-20T04:03:14;100317.56;;;19.82;53.51
22206;BME280;11272;50.104;8.754;2023-07-20T04:05:40;100314.84;;;19.82;53.44
22206;BME280;11272;50.104;8.754;2023-07-20T04:08:06;100321.13;;;19.83;53.46
22206;BME280;11272;50.104;8.754;2023-07-20T04:10:31;100325.56;;;19.84;53.80
22206;BME280;11272;50.104;8.754;2023-07-20T04:12:57;100322.94;;;19.82;53.82
22206;BME280;11272;50.104;8.754;2023-07-20T04:15:23;100316.72;;;19.82;53.68
22206;BME280;11272;50.104;8.754;2023-07-20T04:17:49;100322.00;;;19.83;53.73
22206;BME280;11272;50.104;8.754;2023-07-20T04:20:14;100316.81;;;19.80;53.38
22206;BME280;11272;50.104;8.754;2023-07-20T04:22:40;100325.06;;;19.77;53.63
22206;BME280;11272;50.104;8.754;2023-07-20T04:25:08;100322.47;;;19.75;53.69
22206;BME280;11272;50.104;8.754;2023-07-20T04:27:35;100324.38;;;19.73;53.58
22206;BME280;11272;50.104;8.754;2023-07-20T04:30:01;100333.63;;;19.69;53.85
22206;BME280;11272;50.104;8.754;2023-07-20T04:32:31;100328.31;;;19.68;53.74
22206;BME280;11272;50.104;8.754;2023-07-20T04:34:59;100327.53;;;19.66;53.97
22206;BME280;11272;50.104;8.754;2023-07-20T04:37:33;100329.63;;;19.61;53.89
22206;BME280;11272;50.104;8.754;2023-07-20T04:40:00;100333.69;;;19.54;53.95
22206;BME280;11272;50.104;8.754;2023-07-20T04:42:26;100338.47;;;19.49;53.92
22206;BME280;11272;50.104;8.754;2023-07-20T04:44:54;100343.25;;;19.44;54.12
22206;BME280;11272;50.104;8.754;2023-07-20T04:47:20;100343.41;;;19.41;54.17
22206;BME280;11272;50.104;8.754;2023-07-20T04:49:47;100352.56;;;19.38;53.97
22206;BME280;11272;50.104;8.754;2023-07-20T04:52:14;100352.63;;;19.37;53.98
22206;BME280;11272;50.104;8.754;2023-07-20T04:54:39;100351.84;;;19.34;54.06
22206;BME280;11272;50.104;8.754;2023-07-20T04:57:11;100345.69;;;19.32;54.31
22206;BME280;11272;50.104;8.754;2023-07-20T04:59:42;100354.72;;;19.31;54.15
22206;BME280;11272;50.104;8.754;2023-07-20T05:02:08;100351.25;;;19.29;54.09
22206;BME280;11272;50.104;8.754;2023-07-20T05:04:33;100358.38;;;19.30;54.09
22206;BME280;11272;50.104;8.754;2023-07-20T05:06:59;100357.41;;;19.31;54.29
22206;BME280;11272;50.104;8.754;2023-07-20T05:09:26;100358.81;;;19.39;54.27
22206;BME280;11272;50.104;8.754;2023-07-20T05:12:01;100357.66;;;19.43;54.35
22206;BME280;11272;50.104;8.754;2023-07-20T05:14:30;100363.31;;;19.54;54.04
22206;BME280;11272;50.104;8.754;2023-07-20T05:16:58;100364.50;;;19.64;54.15
22206;BME280;11272;50.104;8.754;2023-07-20T05:19:27;100365.47;;;19.77;54.08
22206;BME280;11272;50.104;8.754;2023-07-20T05:21:55;100374.56;;;19.90;53.79
22206;BME280;11272;50.104;8.754;2023-07-20T05:24:23;100362.19;;;20.02;53.70
22206;BME280;11272;50.104;8.754;2023-07-20T05:26:48;100363.13;;;20.15;53.60
22206;BME280;11272;50.104;8.754;2023-07-20T05:29:14;100358.91;;;20.25;53.27
22206;BME280;11272;50.104;8.754;2023-07-20T05:31:44;100360.97;;;20.36;53.10
22206;BME280;11272;50.104;8.754;2023-07-20T05:34:10;100361.44;;;20.42;53.05
22206;BME280;11272;50.104;8.754;2023-07-20T05:36:40;100367.81;;;20.55;52.93
22206;BME280;11272;50.104;8.754;2023-07-20T05:39:08;100360.56;;;20.70;53.06
22206;BME280;11272;50.104;8.754;2023-07-20T05:41:36;100357.66;;;20.87;52.36
22206;BME280;11272;50.104;8.754;2023-07-20T05:44:01;100360.94;;;21.05;52.04
22206;BME280;11272;50.104;8.754;2023-07-20T05:46:29;100361.91;;;21.18;52.01
22206;BME280;11272;50.104;8.754;2023-07-20T05:48:54;100360.72;;;21.36;51.41
22206;BME280;11272;50.104;8.754;2023-07-20T05:51:25;100366.34;;;21.46;51.16
22206;BME280;11272;50.104;8.754;2023-07-20T05:53:51;100373.81;;;21.55;50.95
22206;BME280;11272;50.104;8.754;2023-07-20T05:56:16;100363.16;;;21.66;50.79
22206;BME280;11272;50.104;8.754;2023-07-20T05:58:42;100371.84;;;21.84;50.49
22206;BME280;11272;50.104;8.754;2023-07-20T06:01:08;100371.69;;;22.00;50.25
22206;BME280;11272;50.104;8.754;2023-07-20T06:03:33;100375.25;;;22.13;49.76
22206;BME280;11272;50.104;8.754;2023-07-20T06:06:07;100364.22;;;22.29;49.61
22206;BME280;11272;50.104;8.754;2023-07-20T06:08:37;100367.56;;;22.45;49.42
22206;BME280;11272;50.104;8.754;2023-07-20T06:11:06;100373.16;;;22.54;49.14
22206;BME280;11272;50.104;8.754;2023-07-20T06:13:32;100379.00;;;22.61;48.75
22206;BME280;11272;50.104;8.754;2023-07-20T06:16:00;100374.69;;;22.58;48.72
22206;BME280;11272;50.104;8.754;2023-07-20T06:18:29;100376.44;;;22.59;48.55
22206;BME280;11272;50.104;8.754;2023-07-20T06:20:56;100386.59;;;22.56;48.53
22206;BME280;11272;50.104;8.754;2023-07-20T06:23:22;100391.59;;;22.49;48.42
22206;BME280;11272;50.104;8.754;2023-07-20T06:25:47;100384.03;;;22.42;48.45
22206;BME280;11272;50.104;8.754;2023-07-20T06:28:13;100385.09;;;22.39;48.54
22206;BME280;11272;50.104;8.754;2023-07-20T06:30:39;100380.22;;;22.57;48.63
22206;BME280;11272;50.104;8.754;2023-07-20T06:33:05;100379.47;;;22.80;48.14
22206;BME280;11272;50.104;8.754;2023-07-20T06:35:33;100380.09;;;22.84;47.77
22206;BME280;11272;50.104;8.754;2023-07-20T06:37:59;100386.19;;;22.75;48.04
22206;BME280;11272;50.104;8.754;2023-07-20T06:40:26;100391.59;;;22.75;48.18
22206;BME280;11272;50.104;8.754;2023-07-20T06:42:51;100397.75;;;22.77;47.83
22206;BME280;11272;50.104;8.754;2023-07-20T06:45:17;100397.91;;;22.75;47.92
22206;BME280;11272;50.104;8.754;2023-07-20T06:47:43;100386.41;;;22.72;48.24
22206;BME280;11272;50.104;8.754;2023-07-20T06:50:09;100377.09;;;22.76;48.05
22206;BME280;11272;50.104;8.754;2023-07-20T06:52:36;100387.69;;;22.79;48.07
22206;BME280;11272;50.104;8.754;2023-07-20T06:55:03;100391.38;;;22.78;48.12
22206;BME280;11272;50.104;8.754;2023-07-20T06:57:29;100395.28;;;22.74;48.10
22206;BME280;11272;50.104;8.754;2023-07-20T06:59:54;100393.09;;;22.66;48.07
22206;BME280;11272;50.104;8.754;2023-07-20T07:02:20;100401.09;;;22.67;48.14
22206;BME280;11272;50.104;8.754;2023-07-20T07:04:46;100397.13;;;22.73;48.20
22206;BME280;11272;50.104;8.754;2023-07-20T07:07:15;100399.72;;;22.75;47.92
22206;BME280;11272;50.104;8.754;2023-07-20T07:09:41;100400.81;;;22.72;47.80
22206;BME280;11272;50.104;8.754;2023-07-20T07:12:08;100397.22;;;22.72;47.66
22206;BME280;11272;50.104;8.754;2023-07-20T07:14:34;100403.50;;;22.85;47.74
22206;BME280;11272;50.104;8.754;2023-07-20T07:17:00;100403.44;;;23.10;47.53
22206;BME280;11272;50.104;8.754;2023-07-20T07:19:25;100406.28;;;23.32;47.16
22206;BME280;11272;50.104;8.754;2023-07-20T07:21:51;100394.06;;;23.50;46.91
22206;BME280;11272;50.104;8.754;2023-07-20T07:24:17;100400.19;;;23.65;46.67
22206;BME280;11272;50.104;8.754;2023-07-20T07:26:42;100402.09;;;23.76;46.22
22206;BME280;11272;50.104;8.754;2023-07-20T07:29:08;100402.13;;;23.87;45.82
22206;BME280;11272;50.104;8.754;2023-07-20T07:31:36;100398.66;;;23.85;45.64
22206;BME280;11272;50.104;8.754;2023-07-20T07:34:04;100407.06;;;23.82;45.49
22206;BME280;11272;50.104;8.754;2023-07-20T07:36:31;100393.59;;;23.80;45.63
22206;BME280;11272;50.104;8.754;2023-07-20T07:38:57;100396.47;;;23.90;45.64
22206;BME280;11272;50.104;8.754;2023-07-20T07:41:22;100410.81;;;24.03;45.71
22206;BME280;11272;50.104;8.754;2023-07-20T07:43:48;100401.94;;;24.12;45.12
22206;BME280;11272;50.104;8.754;2023-07-20T07:46:14;100398.53;;;24.21;45.17
22206;BME280;11272;50.104;8.754;2023-07-20T07:48:40;100402.03;;;24.35;44.82
22206;BME280;11272;50.104;8.754;2023-07-20T07:51:06;100405.00;;;24.54;44.67
22206;BME280;11272;50.104;8.754;2023-07-20T07:53:31;100401.91;;;24.69;44.54
22206;BME280;11272;50.104;8.754;2023-07-20T07:55:58;100407.50;;;24.90;43.97
22206;BME280;11272;50.104;8.754;2023-07-20T07:58:24;100408.13;;;25.05;43.80
22206;BME280;11272;50.104;8.754;2023-07-20T08:00:49;100406.09;;;25.29;43.29
22206;BME280;11272;50.104;8.754;2023-07-20T08:03:15;100407.66;;;25.43;43.12
22206;BME280;11272;50.104;8.754;2023-07-20T08:05:41;100406.38;;;25.69;42.96
22206;BME280;11272;50.104;8.754;2023-07-20T08:08:06;100396.06;;;26.05;42.46
22206;BME280;11272;50.104;8.754;2023-07-20T08:10:34;100395.47;;;26.22;41.84
22206;BME280;11272;50.104;8.754;2023-07-20T08:12:59;100394.69;;;26.31;41.36
22206;BME280;11272;50.104;8.754;2023-07-20T08:15:25;100391.94;;;26.31;41.12
22206;BME280;11272;50.104;8.754;2023-07-20T08:17:50;100394.06;;;26.48;40.91
22206;BME280;11272;50.104;8.754;2023-07-20T08:20:17;100396.91;;;26.98;40.48
22206;BME280;11272;50.104;8.754;2023-07-20T08:22:43;100386.41;;;27.52;39.65
22206;BME280;11272;50.104;8.754;2023-07-20T08:25:09;100390.13;;;27.90;38.97
22206;BME280;11272;50.104;8.754;2023-07-20T08:27:36;100394.41;;;28.40;38.06
22206;BME280;11272;50.104;8.754;2023-07-20T08:30:02;100395.09;;;28.99;37.16
22206;BME280;11272;50.104;8.754;2023-07-20T08:32:29;100381.06;;;29.56;36.20
22206;BME280;11272;50.104;8.754;2023-07-20T08:34:55;100390.84;;;29.59;35.83
22206;BME280;11272;50.104;8.754;2023-07-20T08:37:21;100389.97;;;29.41;35.71
22206;BME280;11272;50.104;8.754;2023-07-20T08:39:46;100392.25;;;29.81;35.21
22206;BME280;11272;50.104;8.754;2023-07-20T08:42:14;100387.63;;;30.17;34.46
22206;BME280;11272;50.104;8.754;2023-07-20T08:44:41;100388.53;;;30.25;33.95
22206;BME280;11272;50.104;8.754;2023-07-20T08:47:08;100378.38;;;30.18;33.72
22206;BME280;11272;50.104;8.754;2023-07-20T08:49:35;100376.25;;;30.55;33.43
22206;BME280;11272;50.104;8.754;2023-07-20T08:52:01;100381.72;;;30.89;32.95
22206;BME280;11272;50.104;8.754;2023-07-20T08:54:33;100389.78;;;30.57;32.42
22206;BME280;11272;50.104;8.754;2023-07-20T08:57:03;100389.47;;;30.34;32.78
22206;BME280;11272;50.104;8.754;2023-07-20T08:59:30;100387.41;;;30.36;32.91
22206;BME280;11272;50.104;8.754;2023-07-20T09:01:57;100378.41;;;30.77;32.59
22206;BME280;11272;50.104;8.754;2023-07-20T09:04:23;100388.19;;;31.06;32.05
22206;BME280;11272;50.104;8.754;2023-07-20T09:06:49;100395.22;;;30.74;31.84
22206;BME280;11272;50.104;8.754;2023-07-20T09:09:16;100389.13;;;30.37;32.01
22206;BME280;11272;50.104;8.754;2023-07-20T09:11:41;100388.53;;;30.25;32.08
22206;BME280;11272;50.104;8.754;2023-07-20T09:14:09;100386.00;;;30.49;31.63
22206;BME280;11272;50.104;8.754;2023-07-20T09:16:47;100378.53;;;30.42;31.96
22206;BME280;11272;50.104;8.754;2023-07-20T09:19:15;100386.75;;;30.16;32.31
22206;BME280;11272;50.104;8.754;2023-07-20T09:21:44;100389.13;;;30.11;32.54
22206;BME280;11272;50.104;8.754;2023-07-20T09:24:10;100393.97;;;30.17;32.07
22206;BME280;11272;50.104;8.754;2023-07-20T09:26:41;100392.13;;;30.26;32.17
22206;BME280;11272;50.104;8.754;2023-07-20T09:29:07;100386.13;;;30.22;32.29
22206;BME280;11272;50.104;8.754;2023-07-20T09:31:34;100384.91;;;30.25;32.01
22206;BME280;11272;50.104;8.754;2023-07-20T09:34:00;100381.13;;;30.43;31.74
22206;BME280;11272;50.104;8.754;2023-07-20T09:36:29;100388.50;;;30.69;31.67
22206;BME280;11272;50.104;8.754;2023-07-20T09:38:54;100380.75;;;30.38;31.23
22206;BME280;11272;50.104;8.754;2023-07-20T09:41:21;100387.59;;;29.91;31.92
22206;BME280;11272;50.104;8.754;2023-07-20T09:43:47;100387.72;;;29.26;32.45
22206;BME280;11272;50.104;8.754;2023-07-20T09:46:12;100385.81;;;28.82;32.69
22206;BME280;11272;50.104;8.754;2023-07-20T09:48:39;100389.19;;;28.57;33.32
22206;BME280;11272;50.104;8.754;2023-07-20T09:51:06;100375.97;;;28.42;33.54
22206;BME280;11272;50.104;8.754;2023-07-20T09:53:33;100377.78;;;28.24;33.87
22206;BME280;11272;50.104;8.754;2023-07-20T09:55:59;100384.09;;;28.05;33.94
22206;BME280;11272;50.104;8.754;2023-07-20T09:58:28;100389.44;;;27.88;34.03
22206;BME280;11272;50.104;8.754;2023-07-20T10:00:57;100377.50;;;27.50;34.66
22206;BME280;11272;50.104;8.754;2023-07-20T10:03:29;100391.19;;;27.20;35.10
22206;BME280;11272;50.104;8.754;2023-07-20T10:06:03;100389.34;;;26.80;35.73
22206;BME280;11272;50.104;8.754;2023-07-20T10:08:30;100386.06;;;26.56;35.97
22206;BME280;11272;50.104;8.754;2023-07-20T10:10:58;100390.06;;;26.52;36.33
22206;BME280;11272;50.104;8.754;2023-07-20T10:13:27;100381.72;;;26.44;36.71
22206;BME280;11272;50.104;8.754;2023-07-20T10:19:11;100379.34;;;27.40;36.47
22206;BME280;11272;50.104;8.754;2023-07-20T10:21:47;100374.63;;;28.66;35.78
22206;BME280;11272;50.104;8.754;2023-07-20T10:24:17;100372.59;;;29.85;34.27
22206;BME280;11272;50.104;8.754;2023-07-20T10:26:44;100360.84;;;30.62;32.78
22206;BME280;11272;50.104;8.754;2023-07-20T10:34:34;100360.94;;;31.20;30.93
22206;BME280;11272;50.104;8.754;2023-07-20T10:39:48;100347.28;;;30.86;30.40
22206;BME280;11272;50.104;8.754;2023-07-20T10:48:30;100330.19;;;31.83;29.98
22206;BME280;11272;50.104;8.754;2023-07-20T11:05:03;100336.00;;;30.56;30.25
22206;BME280;11272;50.104;8.754;2023-07-20T11:07:38;100327.84;;;30.20;30.20
22206;BME280;11272;50.104;8.754;2023-07-20T11:13:16;100321.13;;;30.40;30.59
22206;BME280;11272;50.104;8.754;2023-07-20T11:23:42;100328.88;;;32.67;28.95
22206;BME280;11272;50.104;8.754;2023-07-20T11:26:08;100320.25;;;33.17;28.12
22206;BME280;11272;50.104;8.754;2023-07-20T11:28:35;100321.97;;;33.10;27.39
22206;BME280;11272;50.104;8.754;2023-07-20T11:31:01;100316.44;;;32.79;27.43
22206;BME280;11272;50.104;8.754;2023-07-20T11:33:27;100319.28;;;32.46;27.50
22206;BME280;11272;50.104;8.754;2023-07-20T11:35:52;100318.31;;;32.31;27.55
22206;BME280;11272;50.104;8.754;2023-07-20T11:38:18;100313.88;;;31.98;27.85
22206;BME280;11272;50.104;8.754;2023-07-20T11:40:45;100313.19;;;31.80;27.86
22206;BME280;11272;50.104;8.754;2023-07-20T11:43:12;100299.97;;;32.15;28.13
22206;BME280;11272;50.104;8.754;2023-07-20T11:45:38;100307.81;;;32.90;27.56
22206;BME280;11272;50.104;8.754;2023-07-20T11:48:04;100307.72;;;33.37;26.98
22206;BME280;11272;50.104;8.754;2023-07-20T11:50:30;100303.00;;;33.68;26.54
22206;BME280;11272;50.104;8.754;2023-07-20T11:52:56;100299.66;;;33.81;25.84
22206;BME280;11272;50.104;8.754;2023-07-20T11:55:23;100300.91;;;33.48;25.91
22206;BME280;11272;50.104;8.754;2023-07-20T11:58:04;100306.72;;;32.99;26.38
22206;BME280;11272;50.104;8.754;2023-07-20T12:00:31;100297.78;;;32.58;26.59
22206;BME280;11272;50.104;8.754;2023-07-20T12:02:57;100303.22;;;32.19;26.67
22206;BME280;11272;50.104;8.754;2023-07-20T12:05:23;100296.69;;;31.96;27.11
22206;BME280;11272;50.104;8.754;2023-07-20T12:07:49;100301.53;;;31.77;27.57
22206;BME280;11272;50.104;8.754;2023-07-20T12:10:24;100284.31;;;31.51;28.03
22206;BME280;11272;50.104;8.754;2023-07-20T12:12:50;100288.09;;;31.34;28.17
22206;BME280;11272;50.104;8.754;2023-07-20T12:15:24;100279.97;;;31.16;28.13
22206;BME280;11272;50.104;8.754;2023-07-20T12:17:51;100276.47;;;30.90;29.01
22206;BME280;11272;50.104;8.754;2023-07-20T12:20:26;100279.88;;;30.84;28.69
22206;BME280;11272;50.104;8.754;2023-07-20T12:22:52;100283.16;;;30.87;28.92
22206;BME280;11272;50.104;8.754;2023-07-20T12:25:17;100276.03;;;31.03;28.72
22206;BME280;11272;50.104;8.754;2023-07-20T12:27:45;100281.34;;;31.20;28.69
22206;BME280;11272;50.104;8.754;2023-07-20T12:30:12;100269.59;;;31.60;28.18
22206;BME280;11272;50.104;8.754;2023-07-20T12:32:39;100271.66;;;31.66;27.80
22206;BME280;11272;50.104;8.754;2023-07-20T12:35:05;100269.22;;;31.39;27.94
22206;BME280;11272;50.104;8.754;2023-07-20T12:37:31;100271.56;;;31.10;28.30
22206;BME280;11272;50.104;8.754;2023-07-20T12:39:57;100265.69;;;30.97;28.16
22206;BME280;11272;50.104;8.754;2023-07-20T12:42:22;100267.25;;;30.57;28.55
22206;BME280;11272;50.104;8.754;2023-07-20T12:44:49;100272.63;;;30.33;29.10
22206;BME280;11272;50.104;8.754;2023-07-20T12:47:17;100268.94;;;30.24;29.11
22206;BME280;11272;50.104;8.754;2023-07-20T12:49:43;100270.59;;;30.09;28.89
22206;BME280;11272;50.104;8.754;2023-07-20T12:52:11;100256.47;;;29.96;29.41
22206;BME280;11272;50.104;8.754;2023-07-20T12:54:36;100264.44;;;29.89;29.45
22206;BME280;11272;50.104;8.754;2023-07-20T12:57:02;100260.81;;;29.81;29.68
22206;BME280;11272;50.104;8.754;2023-07-20T12:59:29;100262.59;;;29.72;29.71
22206;BME280;11272;50.104;8.754;2023-07-20T13:01:54;100252.00;;;29.95;29.63
22206;BME280;11272;50.104;8.754;2023-07-20T13:04:20;100261.03;;;30.81;28.90
22206;BME280;11272;50.104;8.754;2023-07-20T13:06:45;100251.88;;;31.63;28.09
22206;BME280;11272;50.104;8.754;2023-07-20T13:09:11;100238.03;;;32.36;27.22
22206;BME280;11272;50.104;8.754;2023-07-20T13:11:37;100237.09;;;32.90;26.53
22206;BME280;11272;50.104;8.754;2023-07-20T13:14:03;100234.03;;;32.85;26.01
22206;BME280;11272;50.104;8.754;2023-07-20T13:16:28;100240.25;;;32.40;26.06
22206;BME280;11272;50.104;8.754;2023-07-20T13:18:54;100239.00;;;31.88;26.78
22206;BME280;11272;50.104;8.754;2023-07-20T13:21:19;100237.28;;;31.54;26.62
22206;BME280;11272;50.104;8.754;2023-07-20T13:23:48;100233.84;;;31.28;27.24
22206;BME280;11272;50.104;8.754;2023-07-20T13:26:15;100224.06;;;31.17;27.07
22206;BME280;11272;50.104;8.754;2023-07-20T13:28:41;100218.25;;;31.45;27.07
22206;BME280;11272;50.104;8.754;2023-07-20T13:31:07;100224.06;;;31.82;26.71
22206;BME280;11272;50.104;8.754;2023-07-20T13:33:35;100224.06;;;31.74;26.72
22206;BME280;11272;50.104;8.754;2023-07-20T13:36:01;100222.78;;;32.17;26.52
22206;BME280;11272;50.104;8.754;2023-07-20T13:38:27;100208.59;;;32.83;26.19